sensor_id;sensor_type;location;lat;lon;timestamp;P1;durP1;ratioP1;P2;durP2;ratioP2
36575;SDS011;45700;50.930;5.168;2023-08-06T00:00:37;3.28;;;0.85;;
36575;SDS011;45700;50.930;5.168;2023-08-06T00:04:38;3.20;;;0.60;;
36575;SDS011;45700;50.930;5.168;2023-08-06T00:08:39;4.57;;;0.73;;
36575;SDS011;45700;50.930;5.168;2023-08-06T00:12:40;3.53;;;0.93;;
36575;SDS011;45700;50.930;5.168;2023-08-06T00:16:44;2.22;;;0.60;;
36575;SDS011;45700;50.930;5.168;2023-08-06T00:20:45;0.70;;;0.45;;
36575;SDS011;45700;50.930;5.168;2023-08-06T00:24:46;3.25;;;0.75;;
36575;SDS011;45700;50.930;5.168;2023-08-06T00:28:47;1.65;;;0.55;;
36575;SDS011;45700;50.930;5.168;2023-08-06T00:32:48;3.33;;;0.65;;
36575;SDS011;45700;50.930;5.168;2023-08-06T00:36:49;2.75;;;0.98;;
36575;SDS011;45700;50.930;5.168;2023-08-06T00:40:50;3.42;;;0.80;;
36575;SDS011;45700;50.930;5.168;2023-08-06T00:44:51;0.80;;;0.80;;
36575;SDS011;45700;50.930;5.168;2023-08-06T00:48:52;3.58;;;0.82;;
36575;SDS011;45700;50.930;5.168;2023-08-06T00:52:53;1.65;;;0.50;;
36575;SDS011;45700;50.930;5.168;2023-08-06T00:56:54;3.15;;;0.80;;
36575;SDS011;45700;50.930;5.168;2023-08-06T01:00:57;4.13;;;0.93;;
36575;SDS011;45700;50.930;5.168;2023-08-06T01:04:58;1.52;;;0.60;;
36575;SDS011;45700;50.930;5.168;2023-08-06T01:09:01;1.83;;;0.43;;
36575;SDS011;45700;50.930;5.168;2023-08-06T01:17:17;3.78;;;0.98;;
36575;SDS011;45700;50.930;5.168;2023-08-06T01:21:18;1.92;;;0.63;;
36575;SDS011;45700;50.930;5.168;2023-08-06T01:25:19;3.13;;;0.57;;
36575;SDS011;45700;50.930;5.168;2023-08-06T01:29:40;3.13;;;0.50;;
36575;SDS011;45700;50.930;5.168;2023-08-06T01:33:43;0.63;;;0.60;;
36575;SDS011;45700;50.930;5.168;2023-08-06T01:37:45;1.70;;;0.40;;
36575;SDS011;45700;50.930;5.168;2023-08-06T01:41:47;0.65;;;0.40;;
36575;SDS011;45700;50.930;5.168;2023-08-06T01:45:48;2.15;;;0.52;;
36575;SDS011;45700;50.930;5.168;2023-08-06T01:49:49;1.10;;;0.40;;
36575;SDS011;45700;50.930;5.168;2023-08-06T01:53:50;0.38;;;0.35;;
36575;SDS011;45700;50.930;5.168;2023-08-06T01:57:51;4.28;;;0.60;;
36575;SDS011;45700;50.930;5.168;2023-08-06T02:01:52;1.50;;;0.30;;
36575;SDS011;45700;50.930;5.168;2023-08-06T02:05:54;1.38;;;0.40;;
36575;SDS011;45700;50.930;5.168;2023-08-06T02:09:55;1.20;;;0.40;;
36575;SDS011;45700;50.930;5.168;2023-08-06T02:13:56;0.73;;;0.43;;
36575;SDS011;45700;50.930;5.168;2023-08-06T02:17:57;1.92;;;0.50;;
36575;SDS011;45700;50.930;5.168;2023-08-06T02:21:58;0.65;;;0.50;;
36575;SDS011;45700;50.930;5.168;2023-08-06T02:25:59;1.08;;;0.40;;
36575;SDS011;45700;50.930;5.168;2023-08-06T02:30:01;0.70;;;0.40;;
36575;SDS011;45700;50.930;5.168;2023-08-06T02:34:02;0.40;;;0.40;;
36575;SDS011;45700;50.930;5.168;2023-08-06T02:38:03;3.65;;;0.50;;
36575;SDS011;45700;50.930;5.168;2023-08-06T02:42:05;5.72;;;0.88;;
36575;SDS011;45700;50.930;5.168;2023-08-06T02:46:06;2.38;;;0.73;;
36575;SDS011;45700;50.930;5.168;2023-08-06T02:50:07;1.95;;;0.90;;
36575;SDS011;45700;50.930;5.168;2023-08-06T02:54:08;2.55;;;0.70;;
36575;SDS011;45700;50.930;5.168;2023-08-06T02:58:09;3.20;;;0.82;;
36575;SDS011;45700;50.930;5.168;2023-08-06T03:02:10;1.52;;;0.73;;
36575;SDS011;45700;50.930;5.168;2023-08-06T03:06:11;1.10;;;0.80;;
36575;SDS011;45700;50.930;5.168;2023-08-06T03:10:12;2.30;;;0.77;;
36575;SDS011;45700;50.930;5.168;2023-08-06T03:14:13;2.05;;;1.10;;
36575;SDS011;45700;50.930;5.168;2023-08-06T03:18:14;4.30;;;1.48;;
36575;SDS011;45700;50.930;5.168;2023-08-06T03:22:15;3.08;;;1.77;;
36575;SDS011;45700;50.930;5.168;2023-08-06T03:26:16;3.58;;;1.98;;
36575;SDS011;45700;50.930;5.168;2023-08-06T03:30:17;4.38;;;1.92;;
36575;SDS011;45700;50.930;5.168;2023-08-06T03:34:18;9.52;;;1.98;;
36575;SDS011;45700;50.930;5.168;2023-08-06T03:38:19;4.32;;;1.77;;
36575;SDS011;45700;50.930;5.168;2023-08-06T03:42:20;4.57;;;2.03;;
36575;SDS011;45700;50.930;5.168;2023-08-06T03:46:21;3.38;;;2.00;;
36575;SDS011;45700;50.930;5.168;2023-08-06T03:50:22;7.05;;;2.33;;
36575;SDS011;45700;50.930;5.168;2023-08-06T03:54:23;3.90;;;2.40;;
36575;SDS011;45700;50.930;5.168;2023-08-06T03:58:24;6.93;;;2.60;;
36575;SDS011;45700;50.930;5.168;2023-08-06T04:02:25;9.38;;;3.30;;
36575;SDS011;45700;50.930;5.168;2023-08-06T04:06:26;5.68;;;3.20;;
36575;SDS011;45700;50.930;5.168;2023-08-06T04:10:27;5.93;;;2.63;;
36575;SDS011;45700;50.930;5.168;2023-08-06T04:14:28;11.00;;;2.97;;
36575;SDS011;45700;50.930;5.168;2023-08-06T04:18:29;7.93;;;3.28;;
36575;SDS011;45700;50.930;5.168;2023-08-06T04:22:30;6.80;;;3.20;;
36575;SDS011;45700;50.930;5.168;2023-08-06T04:26:31;8.35;;;3.25;;
36575;SDS011;45700;50.930;5.168;2023-08-06T04:30:32;5.38;;;3.25;;
36575;SDS011;45700;50.930;5.168;2023-08-06T04:34:33;5.20;;;2.45;;
36575;SDS011;45700;50.930;5.168;2023-08-06T04:38:34;5.78;;;2.80;;
36575;SDS011;45700;50.930;5.168;2023-08-06T04:42:35;5.72;;;2.38;;
36575;SDS011;45700;50.930;5.168;2023-08-06T04:46:36;4.43;;;2.38;;
36575;SDS011;45700;50.930;5.168;2023-08-06T04:50:37;3.38;;;2.00;;
36575;SDS011;45700;50.930;5.168;2023-08-06T04:54:38;4.32;;;2.70;;
36575;SDS011;45700;50.930;5.168;2023-08-06T04:58:39;4.25;;;2.05;;
36575;SDS011;45700;50.930;5.168;2023-08-06T05:02:40;5.18;;;2.58;;
36575;SDS011;45700;50.930;5.168;2023-08-06T05:06:41;2.78;;;1.77;;
36575;SDS011;45700;50.930;5.168;2023-08-06T05:10:43;2.95;;;1.80;;
36575;SDS011;45700;50.930;5.168;2023-08-06T05:14:44;4.85;;;2.20;;
36575;SDS011;45700;50.930;5.168;2023-08-06T05:18:45;3.42;;;1.42;;
36575;SDS011;45700;50.930;5.168;2023-08-06T05:22:46;2.72;;;1.60;;
36575;SDS011;45700;50.930;5.168;2023-08-06T05:26:47;2.08;;;0.80;;
36575;SDS011;45700;50.930;5.168;2023-08-06T05:30:49;1.48;;;0.70;;
36575;SDS011;45700;50.930;5.168;2023-08-06T05:34:50;1.13;;;0.63;;
36575;SDS011;45700;50.930;5.168;2023-08-06T05:38:51;1.15;;;0.70;;
36575;SDS011;45700;50.930;5.168;2023-08-06T05:42:53;1.33;;;0.80;;
36575;SDS011;45700;50.930;5.168;2023-08-06T05:46:54;3.83;;;1.98;;
36575;SDS011;45700;50.930;5.168;2023-08-06T05:50:55;3.03;;;1.60;;
36575;SDS011;45700;50.930;5.168;2023-08-06T05:54:56;2.10;;;1.23;;
36575;SDS011;45700;50.930;5.168;2023-08-06T05:58:57;0.75;;;0.50;;
36575;SDS011;45700;50.930;5.168;2023-08-06T06:02:58;1.95;;;0.77;;
36575;SDS011;45700;50.930;5.168;2023-08-06T06:06:59;2.70;;;1.05;;
36575;SDS011;45700;50.930;5.168;2023-08-06T06:11:00;2.00;;;1.00;;
36575;SDS011;45700;50.930;5.168;2023-08-06T06:15:01;2.45;;;0.93;;
36575;SDS011;45700;50.930;5.168;2023-08-06T06:19:03;3.50;;;1.50;;
36575;SDS011;45700;50.930;5.168;2023-08-06T06:23:04;3.15;;;1.75;;
36575;SDS011;45700;50.930;5.168;2023-08-06T06:27:05;3.00;;;1.98;;
36575;SDS011;45700;50.930;5.168;2023-08-06T06:31:06;3.10;;;1.98;;
36575;SDS011;45700;50.930;5.168;2023-08-06T06:35:07;4.10;;;1.98;;
36575;SDS011;45700;50.930;5.168;2023-08-06T06:39:09;4.05;;;2.45;;
36575;SDS011;45700;50.930;5.168;2023-08-06T06:43:10;3.75;;;2.15;;
36575;SDS011;45700;50.930;5.168;2023-08-06T06:47:11;4.43;;;1.98;;
36575;SDS011;45700;50.930;5.168;2023-08-06T06:51:12;5.53;;;1.98;;
36575;SDS011;45700;50.930;5.168;2023-08-06T06:55:13;4.55;;;1.77;;
36575;SDS011;45700;50.930;5.168;2023-08-06T06:59:14;4.25;;;2.20;;
36575;SDS011;45700;50.930;5.168;2023-08-06T07:03:15;2.83;;;1.70;;
36575;SDS011;45700;50.930;5.168;2023-08-06T07:07:16;4.00;;;1.02;;
36575;SDS011;45700;50.930;5.168;2023-08-06T07:11:17;2.63;;;1.13;;
36575;SDS011;45700;50.930;5.168;2023-08-06T07:15:18;1.35;;;0.77;;
36575;SDS011;45700;50.930;5.168;2023-08-06T07:19:19;4.15;;;1.77;;
36575;SDS011;45700;50.930;5.168;2023-08-06T07:23:21;0.80;;;0.60;;
36575;SDS011;45700;50.930;5.168;2023-08-06T07:27:22;5.75;;;1.02;;
36575;SDS011;45700;50.930;5.168;2023-08-06T07:31:23;2.13;;;1.02;;
36575;SDS011;45700;50.930;5.168;2023-08-06T07:35:24;2.53;;;1.30;;
36575;SDS011;45700;50.930;5.168;2023-08-06T07:39:25;3.20;;;1.30;;
36575;SDS011;45700;50.930;5.168;2023-08-06T07:43:28;2.22;;;0.93;;
36575;SDS011;45700;50.930;5.168;2023-08-06T07:47:29;6.00;;;1.80;;
36575;SDS011;45700;50.930;5.168;2023-08-06T07:51:30;4.05;;;1.65;;
36575;SDS011;45700;50.930;5.168;2023-08-06T07:55:31;2.72;;;1.23;;
36575;SDS011;45700;50.930;5.168;2023-08-06T07:59:32;4.10;;;1.40;;
36575;SDS011;45700;50.930;5.168;2023-08-06T08:03:33;5.60;;;1.45;;
36575;SDS011;45700;50.930;5.168;2023-08-06T08:07:34;5.35;;;1.48;;
36575;SDS011;45700;50.930;5.168;2023-08-06T08:11:35;7.10;;;1.73;;
36575;SDS011;45700;50.930;5.168;2023-08-06T08:15:36;4.20;;;1.90;;
36575;SDS011;45700;50.930;5.168;2023-08-06T08:19:37;2.70;;;1.40;;
36575;SDS011;45700;50.930;5.168;2023-08-06T08:23:38;5.53;;;1.50;;
36575;SDS011;45700;50.930;5.168;2023-08-06T08:27:39;6.28;;;1.30;;
36575;SDS011;45700;50.930;5.168;2023-08-06T08:31:40;2.85;;;1.23;;
36575;SDS011;45700;50.930;5.168;2023-08-06T08:35:41;5.35;;;1.35;;
36575;SDS011;45700;50.930;5.168;2023-08-06T08:39:42;4.85;;;1.40;;
36575;SDS011;45700;50.930;5.168;2023-08-06T08:43:43;4.78;;;0.88;;
36575;SDS011;45700;50.930;5.168;2023-08-06T08:47:45;3.55;;;1.08;;
36575;SDS011;45700;50.930;5.168;2023-08-06T08:51:47;7.20;;;1.13;;
36575;SDS011;45700;50.930;5.168;2023-08-06T08:55:50;10.77;;;1.05;;
36575;SDS011;45700;50.930;5.168;2023-08-06T08:59:51;3.40;;;0.85;;
36575;SDS011;45700;50.930;5.168;2023-08-06T09:03:52;3.17;;;0.98;;
36575;SDS011;45700;50.930;5.168;2023-08-06T09:07:55;3.90;;;1.00;;
36575;SDS011;45700;50.930;5.168;2023-08-06T09:12:01;4.07;;;1.10;;
36575;SDS011;45700;50.930;5.168;2023-08-06T09:16:02;2.58;;;0.77;;
36575;SDS011;45700;50.930;5.168;2023-08-06T09:20:10;5.32;;;0.90;;
36575;SDS011;45700;50.930;5.168;2023-08-06T09:24:12;6.78;;;0.70;;
36575;SDS011;45700;50.930;5.168;2023-08-06T09:28:13;5.38;;;1.10;;
36575;SDS011;45700;50.930;5.168;2023-08-06T09:32:14;0.95;;;0.57;;
36575;SDS011;45700;50.930;5.168;2023-08-06T09:36:15;2.25;;;0.50;;
36575;SDS011;45700;50.930;5.168;2023-08-06T09:40:33;4.68;;;0.60;;
36575;SDS011;45700;50.930;5.168;2023-08-06T09:44:34;5.88;;;0.60;;
36575;SDS011;45700;50.930;5.168;2023-08-06T09:48:35;2.85;;;0.60;;
36575;SDS011;45700;50.930;5.168;2023-08-06T09:52:36;2.65;;;0.43;;
36575;SDS011;45700;50.930;5.168;2023-08-06T09:56:37;1.52;;;0.82;;
36575;SDS011;45700;50.930;5.168;2023-08-06T10:00:38;1.95;;;0.63;;
36575;SDS011;45700;50.930;5.168;2023-08-06T10:04:39;2.15;;;0.70;;
36575;SDS011;45700;50.930;5.168;2023-08-06T10:08:40;1.58;;;0.80;;
36575;SDS011;45700;50.930;5.168;2023-08-06T10:12:43;2.15;;;1.10;;
36575;SDS011;45700;50.930;5.168;2023-08-06T10:16:45;3.42;;;1.25;;
36575;SDS011;45700;50.930;5.168;2023-08-06T10:20:47;1.27;;;0.80;;
36575;SDS011;45700;50.930;5.168;2023-08-06T10:24:49;5.05;;;1.00;;
36575;SDS011;45700;50.930;5.168;2023-08-06T10:28:50;4.38;;;1.20;;
36575;SDS011;45700;50.930;5.168;2023-08-06T10:32:53;1.88;;;1.00;;
36575;SDS011;45700;50.930;5.168;2023-08-06T10:36:54;5.75;;;0.80;;
36575;SDS011;45700;50.930;5.168;2023-08-06T10:45:12;2.25;;;0.50;;
36575;SDS011;45700;50.930;5.168;2023-08-06T10:49:16;3.53;;;0.95;;
36575;SDS011;45700;50.930;5.168;2023-08-06T10:53:18;0.73;;;0.30;;
36575;SDS011;45700;50.930;5.168;2023-08-06T10:57:22;0.70;;;0.40;;
36575;SDS011;45700;50.930;5.168;2023-08-06T11:01:23;1.48;;;0.32;;
36575;SDS011;45700;50.930;5.168;2023-08-06T11:05:24;4.03;;;0.55;;
36575;SDS011;45700;50.930;5.168;2023-08-06T11:09:25;4.10;;;0.50;;
36575;SDS011;45700;50.930;5.168;2023-08-06T11:13:26;2.83;;;0.40;;
36575;SDS011;45700;50.930;5.168;2023-08-06T11:17:28;1.48;;;0.52;;
36575;SDS011;45700;50.930;5.168;2023-08-06T11:21:29;2.00;;;0.20;;
36575;SDS011;45700;50.930;5.168;2023-08-06T11:25:31;0.73;;;0.55;;
36575;SDS011;45700;50.930;5.168;2023-08-06T11:29:36;2.33;;;0.47;;
36575;SDS011;45700;50.930;5.168;2023-08-06T11:33:37;2.58;;;0.40;;
36575;SDS011;45700;50.930;5.168;2023-08-06T11:37:47;4.18;;;0.98;;
36575;SDS011;45700;50.930;5.168;2023-08-06T11:41:48;2.72;;;0.52;;
36575;SDS011;45700;50.930;5.168;2023-08-06T11:45:50;0.80;;;0.60;;
36575;SDS011;45700;50.930;5.168;2023-08-06T11:49:53;1.17;;;0.70;;
36575;SDS011;45700;50.930;5.168;2023-08-06T11:53:55;0.43;;;0.40;;
36575;SDS011;45700;50.930;5.168;2023-08-06T11:57:56;1.25;;;0.30;;
36575;SDS011;45700;50.930;5.168;2023-08-06T12:01:57;2.08;;;0.32;;
36575;SDS011;45700;50.930;5.168;2023-08-06T12:06:01;2.55;;;0.30;;
36575;SDS011;45700;50.930;5.168;2023-08-06T12:10:02;1.27;;;0.30;;
36575;SDS011;45700;50.930;5.168;2023-08-06T12:14:03;1.83;;;0.47;;
36575;SDS011;45700;50.930;5.168;2023-08-06T12:18:04;0.95;;;0.30;;
36575;SDS011;45700;50.930;5.168;2023-08-06T12:22:06;0.65;;;0.65;;
36575;SDS011;45700;50.930;5.168;2023-08-06T12:26:07;3.75;;;0.60;;
36575;SDS011;45700;50.930;5.168;2023-08-06T12:30:08;1.23;;;0.65;;
36575;SDS011;45700;50.930;5.168;2023-08-06T12:34:09;2.50;;;1.02;;
36575;SDS011;45700;50.930;5.168;2023-08-06T12:38:10;6.70;;;0.75;;
36575;SDS011;45700;50.930;5.168;2023-08-06T12:42:11;1.63;;;0.38;;
36575;SDS011;45700;50.930;5.168;2023-08-06T12:46:12;2.03;;;1.05;;
36575;SDS011;45700;50.930;5.168;2023-08-06T12:50:13;2.38;;;0.57;;
36575;SDS011;45700;50.930;5.168;2023-08-06T12:54:16;4.18;;;0.88;;
36575;SDS011;45700;50.930;5.168;2023-08-06T12:58:17;0.80;;;0.52;;
36575;SDS011;45700;50.930;5.168;2023-08-06T13:02:18;1.58;;;0.95;;
36575;SDS011;45700;50.930;5.168;2023-08-06T13:06:19;2.53;;;0.52;;
36575;SDS011;45700;50.930;5.168;2023-08-06T13:10:20;4.32;;;0.80;;
36575;SDS011;45700;50.930;5.168;2023-08-06T13:14:23;2.65;;;1.27;;
36575;SDS011;45700;50.930;5.168;2023-08-06T13:18:24;1.55;;;0.80;;
36575;SDS011;45700;50.930;5.168;2023-08-06T13:22:25;1.35;;;0.70;;
36575;SDS011;45700;50.930;5.168;2023-08-06T13:26:26;2.03;;;0.80;;
36575;SDS011;45700;50.930;5.168;2023-08-06T13:30:27;2.90;;;0.90;;
36575;SDS011;45700;50.930;5.168;2023-08-06T13:34:28;9.82;;;1.17;;
36575;SDS011;45700;50.930;5.168;2023-08-06T13:38:29;3.35;;;0.88;;
36575;SDS011;45700;50.930;5.168;2023-08-06T13:42:30;2.22;;;0.90;;
36575;SDS011;45700;50.930;5.168;2023-08-06T13:46:32;5.03;;;0.60;;
36575;SDS011;45700;50.930;5.168;2023-08-06T13:50:33;0.88;;;0.40;;
36575;SDS011;45700;50.930;5.168;2023-08-06T13:54:34;0.93;;;0.52;;
36575;SDS011;45700;50.930;5.168;2023-08-06T13:58:35;2.50;;;0.50;;
36575;SDS011;45700;50.930;5.168;2023-08-06T14:02:36;3.50;;;0.70;;
36575;SDS011;45700;50.930;5.168;2023-08-06T14:06:37;3.08;;;0.55;;
36575;SDS011;45700;50.930;5.168;2023-08-06T14:10:38;3.10;;;0.60;;
36575;SDS011;45700;50.930;5.168;2023-08-06T14:14:39;2.13;;;0.55;;
36575;SDS011;45700;50.930;5.168;2023-08-06T14:18:41;0.35;;;0.20;;
36575;SDS011;45700;50.930;5.168;2023-08-06T14:22:42;5.78;;;0.73;;
36575;SDS011;45700;50.930;5.168;2023-08-06T14:26:43;1.55;;;0.30;;
36575;SDS011;45700;50.930;5.168;2023-08-06T14:30:44;0.50;;;0.40;;
36575;SDS011;45700;50.930;5.168;2023-08-06T14:34:45;0.40;;;0.30;;
36575;SDS011;45700;50.930;5.168;2023-08-06T14:38:46;0.60;;;0.30;;
36575;SDS011;45700;50.930;5.168;2023-08-06T14:42:47;0.45;;;0.30;;
36575;SDS011;45700;50.930;5.168;2023-08-06T14:46:48;0.82;;;0.40;;
36575;SDS011;45700;50.930;5.168;2023-08-06T14:50:49;1.33;;;0.30;;
36575;SDS011;45700;50.930;5.168;2023-08-06T14:54:50;1.10;;;0.20;;
36575;SDS011;45700;50.930;5.168;2023-08-06T14:58:52;1.25;;;0.45;;
36575;SDS011;45700;50.930;5.168;2023-08-06T15:02:53;0.70;;;0.40;;
36575;SDS011;45700;50.930;5.168;2023-08-06T15:06:54;0.98;;;0.30;;
36575;SDS011;45700;50.930;5.168;2023-08-06T15:10:55;1.05;;;0.50;;
36575;SDS011;45700;50.930;5.168;2023-08-06T15:14:57;2.50;;;0.40;;
36575;SDS011;45700;50.930;5.168;2023-08-06T15:19:00;2.50;;;0.30;;
36575;SDS011;45700;50.930;5.168;2023-08-06T15:23:01;1.17;;;0.40;;
36575;SDS011;45700;50.930;5.168;2023-08-06T15:27:02;0.75;;;0.40;;
36575;SDS011;45700;50.930;5.168;2023-08-06T15:31:04;5.65;;;0.60;;
36575;SDS011;45700;50.930;5.168;2023-08-06T15:35:08;2.40;;;0.60;;
36575;SDS011;45700;50.930;5.168;2023-08-06T15:39:09;5.32;;;0.80;;
36575;SDS011;45700;50.930;5.168;2023-08-06T15:43:10;2.88;;;1.27;;
36575;SDS011;45700;50.930;5.168;2023-08-06T15:47:11;4.30;;;1.23;;
36575;SDS011;45700;50.930;5.168;2023-08-06T15:51:12;7.93;;;1.05;;
36575;SDS011;45700;50.930;5.168;2023-08-06T15:55:13;4.35;;;1.13;;
36575;SDS011;45700;50.930;5.168;2023-08-06T15:59:30;4.18;;;1.13;;
36575;SDS011;45700;50.930;5.168;2023-08-06T16:03:31;2.03;;;0.50;;
36575;SDS011;45700;50.930;5.168;2023-08-06T16:07:32;4.95;;;0.90;;
36575;SDS011;45700;50.930;5.168;2023-08-06T16:11:35;1.80;;;0.70;;
36575;SDS011;45700;50.930;5.168;2023-08-06T16:15:36;2.35;;;0.70;;
36575;SDS011;45700;50.930;5.168;2023-08-06T16:19:37;4.18;;;0.50;;
36575;SDS011;45700;50.930;5.168;2023-08-06T16:23:38;1.85;;;0.70;;
36575;SDS011;45700;50.930;5.168;2023-08-06T16:27:39;1.75;;;0.47;;
36575;SDS011;45700;50.930;5.168;2023-08-06T16:31:40;1.27;;;0.30;;
36575;SDS011;45700;50.930;5.168;2023-08-06T16:35:41;5.50;;;0.73;;
36575;SDS011;45700;50.930;5.168;2023-08-06T16:39:42;2.28;;;0.77;;
36575;SDS011;45700;50.930;5.168;2023-08-06T16:43:43;1.17;;;0.70;;
36575;SDS011;45700;50.930;5.168;2023-08-06T16:47:44;2.30;;;0.73;;
36575;SDS011;45700;50.930;5.168;2023-08-06T16:51:46;2.67;;;0.75;;
36575;SDS011;45700;50.930;5.168;2023-08-06T16:55:47;3.80;;;0.75;;
36575;SDS011;45700;50.930;5.168;2023-08-06T16:59:48;0.82;;;0.50;;
36575;SDS011;45700;50.930;5.168;2023-08-06T17:03:49;1.85;;;0.90;;
36575;SDS011;45700;50.930;5.168;2023-08-06T17:07:51;4.22;;;1.17;;
36575;SDS011;45700;50.930;5.168;2023-08-06T17:11:53;2.58;;;0.80;;
36575;SDS011;45700;50.930;5.168;2023-08-06T17:15:54;8.35;;;1.17;;
36575;SDS011;45700;50.930;5.168;2023-08-06T17:19:55;2.88;;;0.50;;
36575;SDS011;45700;50.930;5.168;2023-08-06T17:23:56;3.50;;;0.60;;
36575;SDS011;45700;50.930;5.168;2023-08-06T17:27:57;1.08;;;0.70;;
36575;SDS011;45700;50.930;5.168;2023-08-06T17:31:58;4.10;;;0.85;;
36575;SDS011;45700;50.930;5.168;2023-08-06T17:35:59;3.40;;;0.70;;
36575;SDS011;45700;50.930;5.168;2023-08-06T17:40:00;4.38;;;0.68;;
36575;SDS011;45700;50.930;5.168;2023-08-06T17:44:01;2.38;;;0.40;;
36575;SDS011;45700;50.930;5.168;2023-08-06T17:48:02;1.45;;;0.60;;
36575;SDS011;45700;50.930;5.168;2023-08-06T17:52:03;3.67;;;0.47;;
36575;SDS011;45700;50.930;5.168;2023-08-06T17:56:04;6.20;;;0.40;;
36575;SDS011;45700;50.930;5.168;2023-08-06T18:00:06;3.00;;;0.75;;
36575;SDS011;45700;50.930;5.168;2023-08-06T18:04:07;1.13;;;0.70;;
36575;SDS011;45700;50.930;5.168;2023-08-06T18:08:09;7.03;;;1.30;;
36575;SDS011;45700;50.930;5.168;2023-08-06T18:12:11;2.53;;;0.57;;
36575;SDS011;45700;50.930;5.168;2023-08-06T18:16:12;4.28;;;0.90;;
36575;SDS011;45700;50.930;5.168;2023-08-06T18:20:13;1.60;;;0.70;;
36575;SDS011;45700;50.930;5.168;2023-08-06T18:24:14;2.08;;;0.77;;
36575;SDS011;45700;50.930;5.168;2023-08-06T18:28:15;1.02;;;0.70;;
36575;SDS011;45700;50.930;5.168;2023-08-06T18:32:16;1.67;;;0.50;;
36575;SDS011;45700;50.930;5.168;2023-08-06T18:36:17;3.50;;;1.00;;
36575;SDS011;45700;50.930;5.168;2023-08-06T18:40:18;1.33;;;0.70;;
36575;SDS011;45700;50.930;5.168;2023-08-06T18:44:19;4.95;;;0.60;;
36575;SDS011;45700;50.930;5.168;2023-08-06T18:48:20;3.78;;;1.00;;
36575;SDS011;45700;50.930;5.168;2023-08-06T18:52:21;1.13;;;0.60;;
36575;SDS011;45700;50.930;5.168;2023-08-06T18:56:22;1.42;;;0.60;;
36575;SDS011;45700;50.930;5.168;2023-08-06T19:00:23;4.68;;;0.70;;
36575;SDS011;45700;50.930;5.168;2023-08-06T19:04:24;4.53;;;1.17;;
36575;SDS011;45700;50.930;5.168;2023-08-06T19:08:26;3.38;;;0.70;;
36575;SDS011;45700;50.930;5.168;2023-08-06T19:12:27;3.38;;;0.80;;
36575;SDS011;45700;50.930;5.168;2023-08-06T19:16:28;2.28;;;0.60;;
36575;SDS011;45700;50.930;5.168;2023-08-06T19:20:29;4.00;;;0.68;;
36575;SDS011;45700;50.930;5.168;2023-08-06T19:24:30;1.77;;;0.80;;
36575;SDS011;45700;50.930;5.168;2023-08-06T19:28:31;5.85;;;0.95;;
36575;SDS011;45700;50.930;5.168;2023-08-06T19:32:34;5.00;;;0.70;;
36575;SDS011;45700;50.930;5.168;2023-08-06T19:36:34;5.13;;;0.80;;
36575;SDS011;45700;50.930;5.168;2023-08-06T19:40:35;1.30;;;0.93;;
36575;SDS011;45700;50.930;5.168;2023-08-06T19:44:36;2.45;;;0.85;;
36575;SDS011;45700;50.930;5.168;2023-08-06T19:48:37;5.63;;;0.90;;
36575;SDS011;45700;50.930;5.168;2023-08-06T19:52:39;2.10;;;0.95;;
36575;SDS011;45700;50.930;5.168;2023-08-06T19:56:41;8.07;;;1.20;;
36575;SDS011;45700;50.930;5.168;2023-08-06T20:00:42;3.97;;;0.85;;
36575;SDS011;45700;50.930;5.168;2023-08-06T20:04:43;3.47;;;1.20;;
36575;SDS011;45700;50.930;5.168;2023-08-06T20:08:44;6.10;;;1.13;;
36575;SDS011;45700;50.930;5.168;2023-08-06T20:12:45;8.02;;;1.73;;
36575;SDS011;45700;50.930;5.168;2023-08-06T20:16:46;6.63;;;1.33;;
36575;SDS011;45700;50.930;5.168;2023-08-06T20:20:47;6.53;;;1.00;;
36575;SDS011;45700;50.930;5.168;2023-08-06T20:24:48;5.28;;;1.48;;
36575;SDS011;45700;50.930;5.168;2023-08-06T20:28:49;2.05;;;1.10;;
36575;SDS011;45700;50.930;5.168;2023-08-06T20:32:50;8.52;;;1.25;;
36575;SDS011;45700;50.930;5.168;2023-08-06T20:36:51;3.95;;;1.27;;
36575;SDS011;45700;50.930;5.168;2023-08-06T20:40:52;2.28;;;0.77;;
36575;SDS011;45700;50.930;5.168;2023-08-06T20:44:55;10.73;;;1.42;;
36575;SDS011;45700;50.930;5.168;2023-08-06T20:48:56;7.68;;;1.20;;
36575;SDS011;45700;50.930;5.168;2023-08-06T20:52:57;5.22;;;1.08;;
36575;SDS011;45700;50.930;5.168;2023-08-06T20:56:58;7.95;;;0.98;;
36575;SDS011;45700;50.930;5.168;2023-08-06T21:00:59;2.03;;;1.10;;
36575;SDS011;45700;50.930;5.168;2023-08-06T21:05:01;9.93;;;1.20;;
36575;SDS011;45700;50.930;5.168;2023-08-06T21:09:02;6.13;;;1.38;;
36575;SDS011;45700;50.930;5.168;2023-08-06T21:13:03;9.38;;;1.55;;
36575;SDS011;45700;50.930;5.168;2023-08-06T21:17:04;1.75;;;0.75;;
36575;SDS011;45700;50.930;5.168;2023-08-06T21:21:05;9.90;;;1.02;;
36575;SDS011;45700;50.930;5.168;2023-08-06T21:25:07;6.60;;;1.50;;
36575;SDS011;45700;50.930;5.168;2023-08-06T21:29:08;3.88;;;1.15;;
36575;SDS011;45700;50.930;5.168;2023-08-06T21:33:09;5.63;;;1.15;;
36575;SDS011;45700;50.930;5.168;2023-08-06T21:37:10;3.72;;;1.02;;
36575;SDS011;45700;50.930;5.168;2023-08-06T21:41:11;5.38;;;1.00;;
36575;SDS011;45700;50.930;5.168;2023-08-06T21:45:12;5.03;;;1.00;;
36575;SDS011;45700;50.930;5.168;2023-08-06T21:49:13;5.10;;;2.03;;
36575;SDS011;45700;50.930;5.168;2023-08-06T21:53:14;3.45;;;1.08;;
36575;SDS011;45700;50.930;5.168;2023-08-06T21:57:15;6.18;;;1.75;;
36575;SDS011;45700;50.930;5.168;2023-08-06T22:01:16;3.80;;;1.27;;
36575;SDS011;45700;50.930;5.168;2023-08-06T22:05:17;3.15;;;1.35;;
36575;SDS011;45700;50.930;5.168;2023-08-06T22:09:18;8.00;;;1.30;;
36575;SDS011;45700;50.930;5.168;2023-08-06T22:13:19;6.50;;;1.58;;
36575;SDS011;45700;50.930;5.168;2023-08-06T22:17:20;6.05;;;1.17;;
36575;SDS011;45700;50.930;5.168;2023-08-06T22:21:21;4.88;;;1.20;;
36575;SDS011;45700;50.930;5.168;2023-08-06T22:25:23;4.90;;;1.00;;
36575;SDS011;45700;50.930;5.168;2023-08-06T22:29:24;9.07;;;1.70;;
36575;SDS011;45700;50.930;5.168;2023-08-06T22:33:25;7.13;;;1.70;;
36575;SDS011;45700;50.930;5.168;2023-08-06T22:37:29;5.10;;;1.30;;
36575;SDS011;45700;50.930;5.168;2023-08-06T22:41:31;10.82;;;1.45;;
36575;SDS011;45700;50.930;5.168;2023-08-06T22:45:32;4.90;;;1.75;;
36575;SDS011;45700;50.930;5.168;2023-08-06T22:49:34;4.78;;;1.05;;
36575;SDS011;45700;50.930;5.168;2023-08-06T22:53:35;4.72;;;1.27;;
36575;SDS011;45700;50.930;5.168;2023-08-06T22:57:36;6.03;;;1.48;;
36575;SDS011;45700;50.930;5.168;2023-08-06T23:01:37;7.80;;;1.40;;
36575;SDS011;45700;50.930;5.168;2023-08-06T23:05:38;3.17;;;1.10;;
36575;SDS011;45700;50.930;5.168;2023-08-06T23:09:39;3.65;;;1.02;;
36575;SDS011;45700;50.930;5.168;2023-08-06T23:13:40;5.28;;;1.83;;
36575;SDS011;45700;50.930;5.168;2023-08-06T23:17:41;1.60;;;0.88;;
36575;SDS011;45700;50.930;5.168;2023-08-06T23:21:42;10.05;;;2.00;;
36575;SDS011;45700;50.930;5.168;2023-08-06T23:25:43;3.13;;;2.15;;
36575;SDS011;45700;50.930;5.168;2023-08-06T23:29:44;5.07;;;1.63;;
36575;SDS011;45700;50.930;5.168;2023-08-06T23:33:45;6.05;;;1.27;;
36575;SDS011;45700;50.930;5.168;2023-08-06T23:37:46;8.57;;;1.50;;
36575;SDS011;45700;50.930;5.168;2023-08-06T23:41:47;5.97;;;1.33;;
36575;SDS011;45700;50.930;5.168;2023-08-06T23:45:49;3.22;;;1.33;;
36575;SDS011;45700;50.930;5.168;2023-08-06T23:49:51;8.95;;;1.70;;
36575;SDS011;45700;50.930;5.168;2023-08-06T23:53:52;5.38;;;1.40;;
36575;SDS011;45700;50.930;5.168;2023-08-06T23:57:53;3.22;;;1.25;;
